createdAt,value
2023-04-24T00:02:14.660Z,4.63
2023-04-24T00:04:46.008Z,5.13
2023-04-24T00:07:14.330Z,4.97
2023-04-24T00:09:47.591Z,4.30
2023-04-24T00:12:14.408Z,4.78
2023-04-24T00:14:47.573Z,5.45
2023-04-24T00:17:14.625Z,5.20
2023-04-24T00:19:47.569Z,5.35
2023-04-24T00:22:14.615Z,5.45
2023-04-24T00:24:48.526Z,5.63
2023-04-24T00:27:15.366Z,5.25
2023-04-24T00:29:48.595Z,5.65
2023-04-24T00:32:15.942Z,6.05
2023-04-24T00:34:49.582Z,6.05
2023-04-24T00:37:16.590Z,6.00
2023-04-24T00:39:50.596Z,5.43
2023-04-24T00:42:17.414Z,6.22
2023-04-24T00:44:44.348Z,7.25
2023-04-24T00:47:18.736Z,6.82
2023-04-24T00:49:45.875Z,5.65
2023-04-24T00:52:20.535Z,6.60
2023-04-24T00:54:47.824Z,6.80
2023-04-24T00:57:25.550Z,6.93
2023-04-24T00:59:54.597Z,6.88
2023-04-24T01:02:30.652Z,7.07
2023-04-24T01:04:57.967Z,6.45
2023-04-24T01:07:32.812Z,7.20
2023-04-24T01:10:06.589Z,8.52
2023-04-24T01:12:40.697Z,8.45
2023-04-24T01:15:27.617Z,9.25
2023-04-24T01:18:00.670Z,8.10
2023-04-24T01:20:34.643Z,9.93
2023-04-24T01:23:01.761Z,8.90
2023-04-24T01:25:35.618Z,10.68
2023-04-24T01:28:08.609Z,10.43
2023-04-24T01:30:41.805Z,11.25
2023-04-24T01:33:08.904Z,11.48
2023-04-24T01:35:43.561Z,12.50
2023-04-24T01:38:10.414Z,11.57
2023-04-24T01:40:43.588Z,12.00
2023-04-24T01:43:10.648Z,12.02
2023-04-24T01:45:43.727Z,11.75
2023-04-24T01:48:17.656Z,11.48
2023-04-24T01:50:44.641Z,10.90
2023-04-24T01:53:19.699Z,10.38
2023-04-24T01:55:46.649Z,10.50
2023-04-24T01:58:19.606Z,10.20
2023-04-24T02:00:46.365Z,10.20
2023-04-24T02:03:19.665Z,11.18
2023-04-24T02:05:46.946Z,9.70
2023-04-24T02:08:20.597Z,9.82
2023-04-24T02:10:47.315Z,9.55
2023-04-24T02:13:20.708Z,9.38
2023-04-24T02:16:07.626Z,9.20
2023-04-24T02:18:40.748Z,8.93
2023-04-24T02:21:07.670Z,9.07
2023-04-24T02:23:42.061Z,9.20
2023-04-24T02:26:08.994Z,9.82
2023-04-24T02:28:42.655Z,9.50
2023-04-24T02:31:09.705Z,10.48
2023-04-24T02:33:43.644Z,11.30
2023-04-24T02:36:16.570Z,11.15
2023-04-24T02:38:43.342Z,11.02
2023-04-24T02:41:16.642Z,10.80
2023-04-24T02:43:43.435Z,11.45
2023-04-24T02:46:16.831Z,11.45
2023-04-24T02:48:43.606Z,12.35
2023-04-24T02:51:17.761Z,12.80
2023-04-24T02:53:44.746Z,12.52
2023-04-24T02:56:19.648Z,13.30
2023-04-24T02:58:46.479Z,14.23
2023-04-24T03:01:19.766Z,12.93
2023-04-24T03:03:46.876Z,12.25
2023-04-24T03:06:20.681Z,13.32
2023-04-24T03:08:47.746Z,10.55
2023-04-24T03:11:20.673Z,11.35
2023-04-24T03:13:53.665Z,10.40
2023-04-24T03:16:27.101Z,11.65
2023-04-24T03:19:00.699Z,11.73
2023-04-24T03:21:27.813Z,15.02
2023-04-24T03:24:00.696Z,15.15
2023-04-24T03:26:27.874Z,15.23
2023-04-24T03:29:01.614Z,16.13
2023-04-24T03:31:28.522Z,15.88
2023-04-24T03:34:02.722Z,15.32
2023-04-24T03:36:29.461Z,11.43
2023-04-24T03:39:02.671Z,10.98
2023-04-24T03:41:29.933Z,14.90
2023-04-24T03:44:03.665Z,12.77
2023-04-24T03:46:43.820Z,16.15
2023-04-24T03:49:10.735Z,14.93
2023-04-24T03:51:44.633Z,14.20
2023-04-24T03:54:11.721Z,15.68
2023-04-24T03:56:44.663Z,12.35
2023-04-24T03:59:11.826Z,14.70
2023-04-24T04:01:44.694Z,14.55
2023-04-24T04:04:11.784Z,13.55
2023-04-24T04:06:45.664Z,14.70
2023-04-24T04:09:18.613Z,16.23
2023-04-24T04:11:51.802Z,15.25
2023-04-24T04:14:18.602Z,15.73
2023-04-24T04:16:58.634Z,16.75
2023-04-24T04:19:25.599Z,17.70
2023-04-24T04:22:00.715Z,18.35
2023-04-24T04:24:27.777Z,19.23
2023-04-24T04:26:57.774Z,17.08
2023-04-24T04:29:31.743Z,16.27
2023-04-24T04:31:59.453Z,19.02
2023-04-24T04:34:32.726Z,20.00
2023-04-24T04:37:03.347Z,19.25
2023-04-24T04:39:38.731Z,20.40
2023-04-24T04:42:05.548Z,19.88
2023-04-24T04:44:38.679Z,20.00
2023-04-24T04:47:06.748Z,20.40
2023-04-24T04:49:40.896Z,22.75
2023-04-24T04:52:07.953Z,22.73
2023-04-24T04:54:41.796Z,21.60
2023-04-24T04:57:09.278Z,24.23
2023-04-24T04:59:36.340Z,23.83
2023-04-24T05:02:09.719Z,22.58
2023-04-24T05:04:36.608Z,23.70
2023-04-24T05:07:10.900Z,22.02
2023-04-24T05:09:38.483Z,22.55
2023-04-24T05:12:11.789Z,26.20
2023-04-24T05:14:38.596Z,23.35
2023-04-24T05:17:18.661Z,26.92
2023-04-24T05:19:46.514Z,25.70
2023-04-24T05:22:19.798Z,21.52
2023-04-24T05:24:46.668Z,25.00
2023-04-24T05:27:20.693Z,20.50
2023-04-24T05:29:47.523Z,19.02
2023-04-24T05:32:20.696Z,21.35
2023-04-24T05:34:47.768Z,24.20
2023-04-24T05:37:21.784Z,21.42
2023-04-24T05:39:54.853Z,24.63
2023-04-24T05:42:27.840Z,19.35
2023-04-24T05:45:02.671Z,21.98
2023-04-24T05:47:29.550Z,25.35
2023-04-24T05:50:02.802Z,23.38
2023-04-24T05:52:29.821Z,21.40
2023-04-24T05:55:03.870Z,21.50
2023-04-24T05:57:30.638Z,22.83
2023-04-24T06:00:03.700Z,24.25
2023-04-24T06:02:33.860Z,20.25
2023-04-24T06:05:07.886Z,21.50
2023-04-24T06:07:34.998Z,21.52
2023-04-24T06:10:08.799Z,20.63
2023-04-24T06:12:35.765Z,22.30
2023-04-24T06:15:08.745Z,20.50
2023-04-24T06:17:48.730Z,23.88
2023-04-24T06:20:21.792Z,20.30
2023-04-24T06:22:54.756Z,18.88
2023-04-24T06:25:28.797Z,19.60
2023-04-24T06:27:56.954Z,22.83
2023-04-24T06:30:24.135Z,19.38
2023-04-24T06:33:03.072Z,19.83
2023-04-24T06:35:37.613Z,19.60
2023-04-24T06:38:10.911Z,21.30
2023-04-24T06:40:41.804Z,20.35
2023-04-24T06:43:14.767Z,20.67
2023-04-24T06:45:44.725Z,22.17
2023-04-24T06:48:18.752Z,20.35
2023-04-24T06:50:46.331Z,18.55
2023-04-24T06:53:20.776Z,17.92
2023-04-24T06:55:53.775Z,20.15
2023-04-24T06:58:27.800Z,20.90
2023-04-24T07:01:00.856Z,18.80
2023-04-24T07:03:27.760Z,17.92
2023-04-24T07:06:02.715Z,18.60
2023-04-24T07:08:31.669Z,16.85
2023-04-24T07:11:04.868Z,16.83
2023-04-24T07:13:31.810Z,16.83
2023-04-24T07:16:06.031Z,17.05
2023-04-24T07:18:41.025Z,18.58
2023-04-24T07:21:14.760Z,16.45
2023-04-24T07:23:42.633Z,15.27
2023-04-24T07:26:15.836Z,16.55
2023-04-24T07:28:48.774Z,17.08
2023-04-24T07:31:22.991Z,14.85
2023-04-24T07:33:50.162Z,16.90
2023-04-24T07:36:20.065Z,13.93
2023-04-24T07:38:53.781Z,17.30
2023-04-24T07:41:21.687Z,15.55
2023-04-24T07:43:54.850Z,13.93
2023-04-24T07:46:22.070Z,15.52
2023-04-24T07:49:09.185Z,14.02
2023-04-24T07:51:40.396Z,12.82
2023-04-24T07:54:13.803Z,15.35
2023-04-24T07:56:43.260Z,14.25
2023-04-24T07:59:17.812Z,12.48
2023-04-24T08:01:44.636Z,11.98
2023-04-24T08:04:17.798Z,15.35
2023-04-24T08:06:51.758Z,10.48
2023-04-24T08:09:26.419Z,10.52
2023-04-24T08:12:01.809Z,9.02
2023-04-24T08:14:34.858Z,8.77
2023-04-24T08:17:14.896Z,9.05
2023-04-24T08:19:55.774Z,9.73
2023-04-24T08:22:28.889Z,8.38
2023-04-24T08:25:03.998Z,9.65
2023-04-24T08:27:30.854Z,9.40
2023-04-24T08:29:58.455Z,8.27
2023-04-24T08:32:31.938Z,8.40
2023-04-24T08:34:59.645Z,7.65
2023-04-24T08:37:34.826Z,8.02
2023-04-24T08:40:02.754Z,7.18
2023-04-24T08:42:36.797Z,8.23
2023-04-24T08:45:04.100Z,6.80
2023-04-24T08:47:37.888Z,6.75
2023-04-24T08:50:07.160Z,6.57
2023-04-24T08:52:41.812Z,6.35
2023-04-24T08:55:08.962Z,7.07
2023-04-24T08:57:47.307Z,6.07
2023-04-24T09:00:14.645Z,6.47
2023-04-24T09:02:50.999Z,6.47
2023-04-24T09:05:19.463Z,6.45
2023-04-24T09:07:56.987Z,6.43
2023-04-24T09:10:31.974Z,4.97
2023-04-24T09:13:02.592Z,4.15
2023-04-24T09:15:35.885Z,4.95
2023-04-24T09:18:10.009Z,4.10
2023-04-24T09:21:14.834Z,4.07
2023-04-24T09:23:42.392Z,4.03
2023-04-24T09:26:17.836Z,4.18
2023-04-24T09:28:45.295Z,6.13
2023-04-24T09:31:25.865Z,10.02
2023-04-24T09:33:59.776Z,10.02
2023-04-24T09:36:44.836Z,11.25
2023-04-24T09:39:13.313Z,13.80
2023-04-24T09:41:55.818Z,15.48
2023-04-24T09:44:24.424Z,12.43
2023-04-24T09:47:05.819Z,14.55
2023-04-24T09:49:37.034Z,15.23
2023-04-24T09:52:16.903Z,13.45
2023-04-24T09:55:00.843Z,13.02
2023-04-24T09:57:33.832Z,14.45
2023-04-24T10:00:01.015Z,17.02
2023-04-24T10:02:33.942Z,14.52
2023-04-24T10:05:08.011Z,15.98
2023-04-24T10:07:41.895Z,13.63
2023-04-24T10:10:15.897Z,13.73
2023-04-24T10:12:50.855Z,13.50
2023-04-24T10:15:38.912Z,13.38
2023-04-24T10:18:13.908Z,11.30
2023-04-24T10:20:48.844Z,12.55
2023-04-24T10:23:16.363Z,16.30
2023-04-24T10:25:49.803Z,14.38
2023-04-24T10:28:17.356Z,15.23
2023-04-24T10:30:51.007Z,18.45
2023-04-24T10:33:18.719Z,15.20
2023-04-24T10:35:56.773Z,14.27
2023-04-24T10:38:33.851Z,15.57
2023-04-24T10:41:24.656Z,18.15
2023-04-24T10:44:17.813Z,15.75
2023-04-24T10:46:46.631Z,10.18
2023-04-24T10:49:19.870Z,10.85
2023-04-24T10:51:48.418Z,10.38
2023-04-24T10:54:42.807Z,7.05
2023-04-24T10:57:30.817Z,7.85
2023-04-24T11:00:23.938Z,8.85
2023-04-24T11:03:01.000Z,8.23
2023-04-24T11:06:02.854Z,10.75
2023-04-24T11:08:52.828Z,8.73
2023-04-24T11:11:28.884Z,7.85
2023-04-24T11:14:04.914Z,8.25
2023-04-24T11:17:08.806Z,9.43
2023-04-24T11:19:41.874Z,9.85
2023-04-24T11:22:18.273Z,10.88
2023-04-24T11:24:54.089Z,8.35
2023-04-24T11:27:22.590Z,9.85
2023-04-24T11:30:05.056Z,12.05
2023-04-24T11:32:34.927Z,10.80
2023-04-24T11:35:11.819Z,11.07
2023-04-24T11:38:07.911Z,14.38
2023-04-24T11:40:39.114Z,9.88
2023-04-24T11:43:14.892Z,8.90
2023-04-24T11:45:55.976Z,6.63
2023-04-24T11:48:23.864Z,7.28
2023-04-24T11:50:57.897Z,6.78
2023-04-24T11:53:30.915Z,7.68
2023-04-24T11:55:57.707Z,6.55
2023-04-24T11:58:30.926Z,8.23
2023-04-24T12:01:02.478Z,8.50
2023-04-24T12:03:36.079Z,5.65
2023-04-24T12:06:09.120Z,5.70
2023-04-24T12:08:42.837Z,5.93
2023-04-24T12:11:09.929Z,10.07
2023-04-24T12:13:43.838Z,5.28
2023-04-24T12:16:17.240Z,8.82
2023-04-24T12:18:51.923Z,4.75
2023-04-24T12:21:29.910Z,2.67
2023-04-24T12:23:57.051Z,4.80
2023-04-24T12:26:30.967Z,4.82
2023-04-24T12:29:04.439Z,4.47
2023-04-24T12:31:39.923Z,7.10
2023-04-24T12:34:25.935Z,6.55
2023-04-24T12:36:53.318Z,5.72
2023-04-24T12:39:21.504Z,4.10
2023-04-24T12:42:12.951Z,5.00
2023-04-24T12:44:39.801Z,7.18
2023-04-24T12:47:12.971Z,9.18
2023-04-24T12:49:40.694Z,4.72
2023-04-24T12:52:13.886Z,7.90
2023-04-24T12:54:46.876Z,4.40
2023-04-24T12:57:13.819Z,3.83
2023-04-24T12:59:46.935Z,5.30
2023-04-24T13:02:14.062Z,2.45
2023-04-24T13:04:46.984Z,5.22
2023-04-24T13:07:15.197Z,4.60
2023-04-24T13:09:46.005Z,3.97
2023-04-24T13:12:19.924Z,4.55
2023-04-24T13:14:47.512Z,4.55
2023-04-24T13:17:22.089Z,3.17
2023-04-24T13:19:58.881Z,3.45
2023-04-24T13:22:26.179Z,3.67
2023-04-24T13:24:59.893Z,2.90
2023-04-24T13:27:26.665Z,3.08
2023-04-24T13:29:53.412Z,2.55
2023-04-24T13:32:26.949Z,4.68
2023-04-24T13:34:54.309Z,2.88
2023-04-24T13:37:27.961Z,7.97
2023-04-24T13:39:54.839Z,3.38
2023-04-24T13:42:28.028Z,3.47
2023-04-24T13:44:55.364Z,2.53
2023-04-24T13:47:28.982Z,2.20
2023-04-24T13:49:55.752Z,1.95
2023-04-24T13:52:28.924Z,2.08
2023-04-24T13:54:56.819Z,2.78
2023-04-24T13:57:23.707Z,1.85
2023-04-24T13:59:56.878Z,1.30
2023-04-24T14:02:23.771Z,2.05
2023-04-24T14:04:57.026Z,1.67
2023-04-24T14:07:26.971Z,2.58
2023-04-24T14:09:59.993Z,2.53
2023-04-24T14:12:27.127Z,3.92
2023-04-24T14:15:01.017Z,1.67
2023-04-24T14:17:34.081Z,2.80
2023-04-24T14:20:07.949Z,2.13
2023-04-24T14:22:34.673Z,2.83
2023-04-24T14:25:07.965Z,1.70
2023-04-24T14:27:36.094Z,3.30
2023-04-24T14:30:10.767Z,2.90
2023-04-24T14:32:40.338Z,1.90
2023-04-24T14:35:08.289Z,2.88
2023-04-24T14:37:41.928Z,2.63
2023-04-24T14:40:32.000Z,4.50
2023-04-24T14:43:05.951Z,2.70
2023-04-24T14:45:32.943Z,2.85
2023-04-24T14:48:06.069Z,5.22
2023-04-24T14:50:32.922Z,2.55
2023-04-24T14:53:05.947Z,2.90
2023-04-24T14:55:33.773Z,3.65
2023-04-24T14:58:06.981Z,2.70
2023-04-24T15:00:39.954Z,3.38
2023-04-24T15:03:07.112Z,5.95
2023-04-24T15:05:40.295Z,2.80
2023-04-24T15:08:07.281Z,6.65
2023-04-24T15:10:41.106Z,5.65
2023-04-24T15:13:14.039Z,6.85
2023-04-24T15:15:48.150Z,6.43
2023-04-24T15:18:21.505Z,4.55
2023-04-24T15:20:54.941Z,5.13
2023-04-24T15:23:21.797Z,5.60
2023-04-24T15:25:54.991Z,9.38
2023-04-24T15:28:22.957Z,5.60
2023-04-24T15:30:55.941Z,6.88
2023-04-24T15:33:22.739Z,7.95
2023-04-24T15:35:57.017Z,5.90
2023-04-24T15:38:23.917Z,7.43
2023-04-24T15:40:57.083Z,9.55
2023-04-24T15:43:30.450Z,5.68
2023-04-24T15:52:31.122Z,5.38
2023-04-24T15:55:19.047Z,9.30
2023-04-24T15:57:52.034Z,7.72
2023-04-24T16:00:19.398Z,8.27
2023-04-24T16:02:53.078Z,7.13
2023-04-24T16:05:26.165Z,7.95
2023-04-24T16:07:59.995Z,7.82
2023-04-24T16:10:33.037Z,5.93
2023-04-24T16:13:09.055Z,7.55
2023-04-24T16:15:39.190Z,4.32
2023-04-24T16:18:06.405Z,5.13
2023-04-24T16:20:39.985Z,7.45
2023-04-24T16:23:06.825Z,8.18
2023-04-24T16:25:40.304Z,7.03
2023-04-24T16:28:07.193Z,9.38
2023-04-24T16:30:40.008Z,5.65
2023-04-24T16:33:09.347Z,4.78
2023-04-24T16:35:43.041Z,10.45
2023-04-24T16:38:17.394Z,6.22
2023-04-24T16:40:51.060Z,7.15
2023-04-24T16:43:18.191Z,7.50
2023-04-24T16:45:45.666Z,5.28
2023-04-24T16:48:19.094Z,5.93
2023-04-24T16:50:46.728Z,7.45
2023-04-24T16:53:19.996Z,8.27
2023-04-24T16:55:53.411Z,6.93
2023-04-24T16:58:27.010Z,7.63
2023-04-24T17:01:00.176Z,8.85
2023-04-24T17:03:33.231Z,5.25
2023-04-24T17:06:00.824Z,4.13
2023-04-24T17:08:34.055Z,5.20
2023-04-24T17:11:00.918Z,6.38
2023-04-24T17:13:34.087Z,6.55
2023-04-24T17:16:07.096Z,7.35
2023-04-24T17:18:40.060Z,7.32
2023-04-24T17:21:13.061Z,8.35
2023-04-24T17:23:39.874Z,6.63
2023-04-24T17:26:13.069Z,8.73
2023-04-24T17:28:46.296Z,7.63
2023-04-24T17:31:13.295Z,9.30
2023-04-24T17:33:47.122Z,7.53
2023-04-24T17:36:20.115Z,6.82
2023-04-24T17:38:47.072Z,9.50
2023-04-24T17:41:23.013Z,7.57
2023-04-24T17:43:50.704Z,9.00
2023-04-24T17:46:24.155Z,11.38
2023-04-24T18:05:36.095Z,7.35
2023-04-24T18:08:10.243Z,9.52
2023-04-24T18:10:37.230Z,7.15
2023-04-24T18:13:11.484Z,7.40
2023-04-24T18:15:42.247Z,7.38
2023-04-24T18:18:17.097Z,8.05
2023-04-24T18:20:50.176Z,5.50
2023-04-24T18:23:16.922Z,5.57
2023-04-24T18:25:50.066Z,7.65
2023-04-24T18:28:16.830Z,7.03
2023-04-24T18:30:50.310Z,8.30
2023-04-24T18:33:17.179Z,10.75
2023-04-24T18:35:50.273Z,10.65
2023-04-24T18:38:17.411Z,9.75
2023-04-24T18:40:51.449Z,6.53
2023-04-24T18:43:18.602Z,7.13
2023-04-24T18:45:53.242Z,7.88
2023-04-24T18:48:20.218Z,8.23
2023-04-24T18:50:47.088Z,8.25
2023-04-24T18:53:22.085Z,7.32
2023-04-24T18:55:49.978Z,4.53
2023-04-24T18:58:23.144Z,9.88
2023-04-24T19:00:50.279Z,9.43
2023-04-24T19:03:24.236Z,6.35
2023-04-24T19:05:57.397Z,6.30
2023-04-24T19:08:31.153Z,4.53
2023-04-24T19:10:58.041Z,6.32
2023-04-24T19:13:31.129Z,6.88
2023-04-24T19:15:58.104Z,8.73
2023-04-24T19:18:33.117Z,6.95
2023-04-24T19:21:08.649Z,6.80
2023-04-24T19:23:39.756Z,7.25
2023-04-24T19:26:13.141Z,8.90
2023-04-24T19:28:40.111Z,8.70
2023-04-24T19:31:14.119Z,8.68
2023-04-24T19:33:41.173Z,7.90
2023-04-24T19:36:15.194Z,7.70
2023-04-24T19:38:42.493Z,9.68
2023-04-24T19:41:09.220Z,5.28
2023-04-24T19:43:42.123Z,7.15
2023-04-24T19:46:15.991Z,10.80
2023-04-24T19:48:51.046Z,10.52
2023-04-24T19:51:25.191Z,10.20
2023-04-24T19:53:59.127Z,7.93
2023-04-24T19:56:25.896Z,8.77
2023-04-24T19:58:59.262Z,8.73
2023-04-24T20:01:26.198Z,10.57
2023-04-24T20:04:00.361Z,8.88
2023-04-24T20:06:34.228Z,10.10
2023-04-24T20:09:07.193Z,9.68
2023-04-24T20:11:34.360Z,8.88
2023-04-24T20:14:10.160Z,5.82
2023-04-24T20:17:06.251Z,7.90
2023-04-24T20:19:39.141Z,8.00
2023-04-24T20:22:06.140Z,7.35
2023-04-24T20:24:40.130Z,9.10
2023-04-24T20:27:07.218Z,7.47
2023-04-24T20:29:40.152Z,7.07
2023-04-24T20:32:07.251Z,9.70
2023-04-24T20:34:41.196Z,7.22
2023-04-24T20:37:14.203Z,11.73
2023-04-24T20:39:41.132Z,8.00
2023-04-24T20:42:14.153Z,10.00
2023-04-24T20:44:41.899Z,11.18
2023-04-24T20:47:15.201Z,9.82
2023-04-24T20:49:42.444Z,8.48
2023-04-24T20:52:09.337Z,12.20
2023-04-24T20:54:43.211Z,11.43
2023-04-24T20:57:17.264Z,10.20
2023-04-24T20:59:44.065Z,11.13
2023-04-24T21:02:19.303Z,7.70
2023-04-24T21:04:53.232Z,13.00
2023-04-24T21:07:26.182Z,10.45
2023-04-24T21:09:53.233Z,10.20
2023-04-24T21:12:27.162Z,11.18
2023-04-24T21:15:00.175Z,9.95
2023-04-24T21:17:27.278Z,11.68
2023-04-24T21:20:03.287Z,9.43
2023-04-24T21:22:30.638Z,9.20
2023-04-24T21:25:04.326Z,9.90
2023-04-24T21:27:38.209Z,12.07
2023-04-24T21:30:13.348Z,12.50
2023-04-24T21:32:40.900Z,10.05
2023-04-24T21:35:15.131Z,8.23
2023-04-24T21:37:49.227Z,9.05
2023-04-24T21:40:16.537Z,11.55
2023-04-24T21:42:50.233Z,10.90
2023-04-24T21:45:19.674Z,8.80
2023-04-24T21:47:53.337Z,11.55
2023-04-24T21:50:20.386Z,11.75
2023-04-24T21:52:54.204Z,15.07
2023-04-24T21:55:21.865Z,11.02
2023-04-24T21:57:55.181Z,9.98
2023-04-24T22:00:29.349Z,9.52
2023-04-24T22:03:02.342Z,11.15
2023-04-24T22:05:49.209Z,10.60
2023-04-24T22:08:23.197Z,12.52
2023-04-24T22:10:58.226Z,14.95
2023-04-24T22:13:32.227Z,7.10
2023-04-24T22:15:59.180Z,10.52
2023-04-24T22:18:46.178Z,8.05
2023-04-24T22:21:20.161Z,9.50
2023-04-24T22:23:54.167Z,7.03
2023-04-24T22:26:21.214Z,7.78
2023-04-24T22:28:48.427Z,7.78
2023-04-24T22:31:22.239Z,9.23
2023-04-24T22:33:56.210Z,7.20
2023-04-24T22:36:23.002Z,8.83
2023-04-24T22:38:56.167Z,7.35
2023-04-24T22:41:29.173Z,8.00
2023-04-24T22:43:56.041Z,6.97
2023-04-24T22:46:31.200Z,7.30
2023-04-24T22:48:58.640Z,9.18
2023-04-24T22:51:33.158Z,5.40
2023-04-24T22:54:02.532Z,6.78
2023-04-24T22:56:36.146Z,5.82
2023-04-24T22:59:04.491Z,6.20
2023-04-24T23:01:38.209Z,4.47
2023-04-24T23:04:25.357Z,8.18
2023-04-24T23:06:58.154Z,7.90
2023-04-24T23:09:24.868Z,9.90
2023-04-24T23:11:58.233Z,7.30
2023-04-24T23:14:25.210Z,8.07
2023-04-24T23:16:58.271Z,7.93
2023-04-24T23:19:25.306Z,10.35
2023-04-24T23:21:58.246Z,11.20
2023-04-24T23:24:31.242Z,10.23
2023-04-24T23:26:58.039Z,11.63
2023-04-24T23:29:33.164Z,10.88
2023-04-24T23:32:02.073Z,11.52
2023-04-24T23:34:35.216Z,11.85
2023-04-24T23:37:01.968Z,10.23
2023-04-24T23:39:35.336Z,8.77
2023-04-24T23:42:03.117Z,13.10
2023-04-24T23:44:37.179Z,8.73
2023-04-24T23:47:03.952Z,10.80
2023-04-24T23:49:37.216Z,12.40
2023-04-24T23:52:04.573Z,14.05
2023-04-24T23:54:38.162Z,15.07
2023-04-24T23:57:04.843Z,15.52
2023-04-24T23:59:38.257Z,17.40
